createdAt,value
2023-04-01T00:01:17.900Z,15.57
2023-04-01T00:03:46.753Z,14.85
2023-04-01T00:06:17.722Z,15.93
2023-04-01T00:08:46.510Z,16.52
2023-04-01T00:11:15.932Z,14.80
2023-04-01T00:13:44.529Z,14.43
2023-04-01T00:16:21.905Z,14.27
2023-04-01T00:18:51.815Z,17.33
2023-04-01T00:21:21.692Z,16.88
2023-04-01T00:23:52.539Z,17.17
2023-04-01T00:26:22.834Z,14.07
2023-04-01T00:28:51.659Z,27.95
2023-04-01T00:31:20.477Z,17.27
2023-04-01T00:33:49.057Z,16.58
2023-04-01T00:36:21.001Z,17.95
2023-04-01T00:38:49.445Z,17.67
2023-04-01T00:41:18.425Z,25.25
2023-04-01T00:43:49.411Z,25.58
2023-04-01T00:46:18.388Z,20.83
2023-04-01T00:48:52.824Z,21.15
2023-04-01T00:51:29.414Z,17.60
2023-04-01T00:54:00.206Z,17.33
2023-04-01T00:57:02.538Z,15.85
2023-04-01T00:59:38.474Z,15.07
2023-04-01T01:02:09.989Z,12.95
2023-04-01T01:04:38.624Z,17.35
2023-04-01T01:07:07.184Z,15.70
2023-04-01T01:10:01.579Z,21.33
2023-04-01T01:12:47.396Z,21.15
2023-04-01T01:15:16.015Z,18.70
2023-04-01T01:18:14.451Z,22.83
2023-04-01T01:20:48.708Z,129.35
2023-04-01T01:23:54.349Z,91.30
2023-04-01T01:26:47.721Z,89.47
2023-04-01T01:29:37.605Z,90.63
2023-04-01T01:32:26.951Z,158.77
2023-04-01T01:35:17.061Z,137.07
2023-04-01T01:37:47.942Z,162.52
2023-04-01T01:40:17.561Z,131.80
2023-04-01T01:42:50.534Z,252.52
2023-04-01T01:45:22.567Z,285.95
2023-04-01T01:47:52.264Z,242.32
2023-04-01T01:50:21.316Z,105.20
2023-04-01T01:52:49.640Z,65.20
2023-04-01T01:55:28.840Z,55.05
2023-04-01T01:58:02.486Z,38.03
2023-04-01T02:00:32.034Z,59.72
2023-04-01T02:03:02.981Z,30.77
2023-04-01T02:05:32.126Z,17.75
2023-04-01T02:08:19.290Z,15.75
2023-04-01T02:10:57.116Z,15.48
2023-04-01T02:13:37.548Z,13.77
2023-04-01T02:16:15.285Z,14.70
2023-04-01T02:18:45.249Z,15.98
2023-04-01T02:21:14.630Z,29.75
2023-04-01T02:23:43.582Z,18.98
2023-04-01T02:26:13.649Z,27.67
2023-04-01T02:28:42.276Z,29.25
2023-04-01T02:31:12.296Z,32.13
2023-04-01T02:33:41.269Z,149.00
2023-04-01T02:36:14.496Z,203.82
2023-04-01T02:38:45.649Z,168.68
2023-04-01T02:41:14.339Z,78.43
2023-04-01T02:43:43.171Z,49.72
2023-04-01T02:46:11.866Z,141.48
2023-04-01T02:48:40.621Z,96.68
2023-04-01T02:51:10.051Z,48.05
2023-04-01T02:53:38.465Z,32.22
2023-04-01T02:56:07.238Z,18.10
2023-04-01T02:58:35.822Z,17.27
2023-04-01T03:01:04.379Z,14.35
2023-04-01T03:03:32.898Z,14.95
2023-04-01T03:06:10.201Z,26.35
2023-04-01T03:08:38.654Z,108.57
2023-04-01T03:11:07.650Z,64.07
2023-04-01T03:13:37.927Z,123.80
2023-04-01T03:16:06.884Z,61.80
2023-04-01T03:18:35.362Z,25.90
2023-04-01T03:21:24.413Z,18.15
2023-04-01T03:23:53.117Z,13.68
2023-04-01T03:26:22.728Z,21.65
2023-04-01T03:28:51.101Z,16.60
2023-04-01T03:31:20.434Z,15.18
2023-04-01T03:33:55.164Z,16.70
2023-04-01T03:36:24.812Z,16.50
2023-04-01T03:38:53.327Z,16.02
2023-04-01T03:41:29.553Z,18.20
2023-04-01T03:43:58.932Z,16.02
2023-04-01T03:46:28.299Z,28.20
2023-04-01T03:48:56.730Z,38.42
2023-04-01T03:51:26.119Z,20.90
2023-04-01T03:53:54.515Z,19.25
2023-04-01T03:56:23.702Z,22.80
2023-04-01T03:58:52.372Z,22.45
2023-04-01T04:01:22.921Z,23.92
2023-04-01T04:03:54.723Z,21.90
2023-04-01T04:06:25.491Z,28.23
2023-04-01T04:08:54.717Z,45.00
2023-04-01T04:11:24.228Z,37.22
2023-04-01T04:13:56.076Z,24.25
2023-04-01T04:16:25.436Z,130.98
2023-04-01T04:19:01.093Z,467.92
2023-04-01T04:21:29.838Z,85.15
2023-04-01T04:23:58.573Z,43.33
2023-04-01T04:26:27.373Z,34.85
2023-04-01T04:29:01.022Z,24.83
2023-04-01T04:31:30.114Z,34.75
2023-04-01T04:34:02.118Z,27.67
2023-04-01T04:36:33.447Z,38.85
2023-04-01T04:39:04.251Z,26.15
2023-04-01T04:41:37.515Z,28.48
2023-04-01T04:44:06.458Z,21.73
2023-04-01T04:46:35.089Z,25.48
2023-04-01T04:49:13.857Z,32.28
2023-04-01T04:51:42.401Z,47.55
2023-04-01T04:54:11.162Z,41.05
2023-04-01T04:57:00.855Z,42.03
2023-04-01T04:59:33.178Z,43.05
2023-04-01T05:02:11.477Z,49.38
2023-04-01T05:04:39.816Z,36.17
2023-04-01T05:07:11.564Z,38.72
2023-04-01T05:09:40.618Z,32.85
2023-04-01T05:12:09.245Z,30.65
2023-04-01T05:14:56.368Z,31.30
2023-04-01T05:17:25.099Z,32.30
2023-04-01T05:19:54.166Z,32.15
2023-04-01T05:22:23.458Z,27.58
2023-04-01T05:24:52.513Z,27.85
2023-04-01T05:27:21.496Z,34.35
2023-04-01T05:29:49.855Z,34.90
2023-04-01T05:32:38.514Z,29.85
2023-04-01T05:35:07.158Z,31.95
2023-04-01T05:37:38.917Z,25.02
2023-04-01T05:40:07.554Z,28.02
2023-04-01T05:42:38.136Z,24.85
2023-04-01T05:45:08.031Z,20.08
2023-04-01T05:48:03.246Z,20.70
2023-04-01T05:50:38.259Z,20.65
2023-04-01T05:53:07.490Z,20.00
2023-04-01T05:55:37.165Z,18.77
2023-04-01T05:58:06.786Z,21.40
2023-04-01T06:00:36.613Z,24.10
2023-04-01T06:03:05.501Z,21.73
2023-04-01T06:05:40.909Z,18.90
2023-04-01T06:08:17.606Z,21.02
2023-04-01T06:11:14.681Z,18.17
2023-04-01T06:13:52.363Z,17.77
2023-04-01T06:16:51.254Z,20.58
2023-04-01T06:19:20.792Z,53.47
2023-04-01T06:22:20.402Z,47.33
2023-04-01T06:25:10.787Z,107.35
2023-04-01T06:28:00.907Z,52.58
2023-04-01T06:30:29.689Z,38.38
2023-04-01T06:33:12.650Z,55.72
2023-04-01T06:36:19.591Z,44.90
2023-04-01T06:39:17.631Z,41.38
2023-04-01T06:41:58.650Z,40.30
2023-04-01T06:44:55.270Z,43.43
2023-04-01T06:48:16.579Z,41.55
2023-04-01T06:51:24.487Z,39.83
2023-04-01T06:54:22.625Z,43.90
2023-04-01T06:57:35.638Z,52.50
2023-04-01T07:00:13.638Z,47.13
2023-04-01T07:02:59.794Z,46.95
2023-04-01T07:05:33.648Z,49.08
2023-04-01T07:08:06.490Z,52.03
2023-04-01T07:10:46.454Z,107.75
2023-04-01T07:26:49.194Z,37.70
2023-04-01T07:29:21.582Z,46.10
2023-04-01T07:31:53.431Z,42.13
2023-04-01T07:34:48.303Z,42.85
2023-04-01T07:40:01.780Z,38.00
2023-04-01T07:42:38.387Z,28.85
2023-04-01T07:45:39.183Z,36.67
2023-04-01T07:48:40.287Z,23.90
2023-04-01T07:51:25.721Z,22.52
2023-04-01T07:54:21.747Z,21.92
2023-04-01T07:57:07.166Z,31.65
2023-04-01T08:00:04.501Z,24.85
2023-04-01T08:03:19.374Z,29.00
2023-04-01T08:06:08.301Z,26.98
2023-04-01T08:09:00.893Z,25.73
2023-04-01T08:12:23.093Z,34.08
2023-04-01T08:15:15.332Z,17.60
2023-04-01T08:18:50.474Z,27.63
2023-04-01T08:21:25.419Z,37.22
2023-04-01T08:23:57.561Z,28.42
2023-04-01T08:26:38.270Z,30.52
2023-04-01T08:29:22.764Z,31.90
2023-04-01T08:32:08.238Z,63.65
2023-04-01T08:34:45.124Z,27.98
2023-04-01T08:37:31.369Z,33.85
2023-04-01T08:40:16.316Z,30.05
2023-04-01T08:43:15.951Z,31.23
2023-04-01T08:46:21.350Z,24.30
2023-04-01T08:48:59.161Z,27.73
2023-04-01T08:51:28.767Z,40.65
2023-04-01T08:54:31.156Z,29.10
2023-04-01T08:57:38.302Z,87.45
2023-04-01T09:00:49.618Z,199.80
2023-04-01T09:03:52.016Z,69.55
2023-04-01T09:06:30.656Z,37.58
2023-04-01T09:09:11.031Z,54.28
2023-04-01T09:11:40.410Z,32.72
2023-04-01T09:14:08.644Z,33.28
2023-04-01T09:16:44.034Z,27.25
2023-04-01T09:19:39.250Z,22.35
2023-04-01T09:22:08.193Z,19.23
2023-04-01T09:24:36.563Z,29.00
2023-04-01T09:27:29.582Z,11.82
2023-04-01T09:30:37.617Z,18.13
2023-04-01T09:33:06.430Z,14.55
2023-04-01T09:35:43.811Z,19.25
2023-04-01T09:38:31.170Z,28.98
2023-04-01T09:40:59.867Z,35.90
2023-04-01T09:43:55.938Z,18.38
2023-04-01T09:47:00.432Z,14.35
2023-04-01T09:49:53.234Z,13.70
2023-04-01T09:52:48.903Z,13.10
2023-04-01T09:55:57.398Z,11.77
2023-04-01T09:58:52.875Z,11.80
2023-04-01T10:01:46.055Z,12.07
2023-04-01T10:04:32.185Z,12.25
2023-04-01T10:07:24.124Z,11.55
2023-04-01T10:09:55.752Z,13.27
2023-04-01T10:12:24.474Z,13.25
2023-04-01T10:15:11.529Z,13.07
2023-04-01T10:17:40.257Z,11.90
2023-04-01T10:20:19.529Z,14.93
2023-04-01T10:23:07.178Z,21.25
2023-04-01T10:26:01.474Z,21.52
2023-04-01T10:28:52.281Z,20.52
2023-04-01T10:32:15.115Z,15.77
2023-04-01T10:35:08.604Z,23.02
2023-04-01T10:37:58.722Z,18.13
2023-04-01T10:40:39.176Z,13.10
2023-04-01T10:43:40.460Z,10.90
2023-04-01T10:46:16.948Z,21.40
2023-04-01T10:49:12.972Z,16.48
2023-04-01T10:51:59.906Z,13.30
2023-04-01T10:55:25.153Z,11.27
2023-04-01T10:58:44.142Z,13.07
2023-04-01T11:02:03.921Z,14.93
2023-04-01T11:05:07.570Z,11.85
2023-04-01T11:08:12.621Z,9.65
2023-04-01T11:11:20.286Z,9.05
2023-04-01T11:14:14.002Z,9.45
2023-04-01T11:17:24.705Z,11.35
2023-04-01T11:20:09.476Z,12.75
2023-04-01T11:22:56.528Z,10.45
2023-04-01T11:25:26.469Z,8.82
2023-04-01T11:28:39.629Z,11.02
2023-04-01T11:31:37.788Z,14.23
2023-04-01T11:34:24.389Z,15.70
2023-04-01T11:37:01.235Z,27.05
2023-04-01T11:39:55.897Z,56.25
2023-04-01T11:43:32.253Z,64.80
2023-04-01T11:46:52.734Z,24.05
2023-04-01T11:49:39.231Z,14.10
2023-04-01T11:52:24.758Z,16.10
2023-04-01T11:55:26.660Z,19.40
2023-04-01T11:58:20.520Z,17.17
2023-04-01T12:00:48.868Z,21.10
2023-04-01T12:03:50.263Z,20.50
2023-04-01T12:06:24.137Z,19.73
2023-04-01T12:09:19.781Z,24.45
2023-04-01T12:12:03.438Z,23.00
2023-04-01T12:14:49.082Z,43.38
2023-04-01T12:17:29.114Z,26.58
2023-04-01T12:19:57.805Z,30.88
2023-04-01T12:22:37.875Z,30.90
2023-04-01T12:25:06.746Z,24.83
2023-04-01T12:27:45.006Z,22.27
2023-04-01T12:30:55.486Z,18.65
2023-04-01T12:33:23.883Z,34.45
2023-04-01T12:36:12.071Z,20.48
2023-04-01T12:38:40.486Z,21.00
2023-04-01T12:41:38.252Z,24.63
2023-04-01T12:44:15.377Z,19.58
2023-04-01T12:46:54.882Z,65.47
2023-04-01T12:49:28.207Z,17.48
2023-04-01T12:52:12.280Z,28.83
2023-04-01T12:55:05.242Z,20.85
2023-04-01T12:57:45.460Z,17.52
2023-04-01T13:00:22.228Z,16.40
2023-04-01T13:03:11.657Z,16.42
2023-04-01T13:05:53.277Z,16.95
2023-04-01T13:08:22.141Z,16.90
2023-04-01T13:11:02.279Z,15.68
2023-04-01T13:13:55.187Z,25.73
2023-04-01T13:16:32.175Z,21.50
2023-04-01T13:19:07.614Z,22.35
2023-04-01T13:22:00.002Z,19.00
2023-04-01T13:24:52.660Z,22.02
2023-04-01T13:27:44.867Z,22.88
2023-04-01T13:30:31.211Z,21.83
2023-04-01T13:33:29.322Z,20.73
2023-04-01T13:36:34.479Z,27.52
2023-04-01T13:39:36.543Z,23.33
2023-04-01T13:42:12.472Z,26.27
2023-04-01T13:44:55.744Z,21.38
2023-04-01T13:47:24.431Z,24.63
2023-04-01T13:50:23.326Z,33.83
2023-04-01T13:53:29.301Z,37.85
2023-04-01T13:55:57.633Z,24.73
2023-04-01T13:58:26.072Z,25.98
2023-04-01T14:01:09.154Z,35.05
2023-04-01T14:03:56.092Z,28.00
2023-04-01T14:06:42.429Z,43.00
2023-04-01T14:09:25.921Z,24.10
2023-04-01T14:12:09.088Z,29.95
2023-04-01T14:15:01.037Z,28.73
2023-04-01T14:18:12.253Z,25.58
2023-04-01T14:21:05.049Z,44.33
2023-04-01T14:23:40.249Z,26.77
2023-04-01T14:26:39.594Z,29.38
2023-04-01T14:29:19.850Z,31.58
2023-04-01T14:31:48.521Z,97.40
2023-04-01T14:34:16.814Z,253.45
2023-04-01T14:36:45.596Z,77.10
2023-04-01T14:39:44.802Z,69.40
2023-04-01T14:42:24.595Z,32.00
2023-04-01T14:44:52.979Z,29.02
2023-04-01T14:47:21.482Z,38.53
2023-04-01T14:50:09.891Z,47.25
2023-04-01T14:52:43.247Z,27.00
2023-04-01T14:55:27.689Z,31.13
2023-04-01T14:58:10.225Z,28.65
2023-04-01T15:01:03.839Z,48.15
2023-04-01T15:03:32.517Z,51.67
2023-04-01T15:06:09.495Z,64.15
2023-04-01T15:08:54.242Z,57.65
2023-04-01T15:11:22.881Z,70.05
2023-04-01T15:14:21.442Z,35.45
2023-04-01T15:17:17.934Z,55.47
2023-04-01T15:20:19.330Z,23.27
2023-04-01T15:23:08.291Z,43.25
2023-04-01T15:26:04.186Z,37.83
2023-04-01T15:28:32.573Z,14.45
2023-04-01T15:31:17.414Z,20.23
2023-04-01T15:34:04.055Z,26.20
2023-04-01T15:36:45.114Z,25.88
2023-04-01T15:39:32.930Z,39.70
2023-04-01T15:42:20.260Z,24.45
2023-04-01T15:44:54.484Z,21.50
2023-04-01T15:47:42.124Z,17.00
2023-04-01T15:50:22.418Z,20.52
2023-04-01T15:53:01.124Z,22.35
2023-04-01T15:55:38.618Z,22.50
2023-04-01T15:58:28.212Z,23.45
2023-04-01T16:01:07.542Z,23.52
2023-04-01T16:03:55.486Z,31.73
2023-04-01T16:06:32.228Z,34.63
2023-04-01T16:09:18.811Z,30.27
2023-04-01T16:11:57.901Z,15.55
2023-04-01T16:14:31.839Z,53.10
2023-04-01T16:17:00.379Z,54.03
2023-04-01T16:19:41.166Z,53.65
2023-04-01T16:22:20.126Z,42.63
2023-04-01T16:24:52.357Z,32.72
2023-04-01T16:27:23.668Z,37.20
2023-04-01T16:30:16.554Z,24.10
2023-04-01T16:33:22.787Z,42.05
2023-04-01T16:36:06.597Z,22.50
2023-04-01T16:38:39.795Z,27.05
2023-04-01T16:41:31.750Z,20.55
2023-04-01T16:44:11.614Z,26.38
2023-04-01T16:46:41.707Z,35.90
2023-04-01T16:49:13.244Z,18.08
2023-04-01T16:52:00.730Z,21.50
2023-04-01T16:54:44.034Z,23.95
2023-04-01T16:57:17.307Z,19.15
2023-04-01T16:59:56.395Z,50.53
2023-04-01T17:02:28.075Z,54.28
2023-04-01T17:05:07.350Z,26.15
2023-04-01T17:08:06.427Z,29.33
2023-04-01T17:10:53.659Z,24.60
2023-04-01T17:13:43.505Z,23.05
2023-04-01T17:16:30.283Z,16.48
2023-04-01T17:18:58.857Z,19.85
2023-04-01T17:21:39.070Z,15.52
2023-04-01T17:24:16.919Z,19.05
2023-04-01T17:26:54.957Z,29.65
2023-04-01T17:29:28.082Z,28.42
2023-04-01T17:32:13.614Z,19.10
2023-04-01T17:35:00.839Z,23.75
2023-04-01T17:37:42.743Z,21.65
2023-04-01T17:40:53.792Z,25.35
2023-04-01T17:43:40.619Z,35.63
2023-04-01T17:46:33.037Z,30.67
2023-04-01T17:49:32.340Z,16.63
2023-04-01T17:52:30.801Z,28.60
2023-04-01T17:54:59.186Z,27.98
2023-04-01T17:57:27.896Z,32.17
2023-04-01T18:00:14.248Z,50.75
2023-04-01T18:03:20.214Z,33.75
2023-04-01T18:05:49.586Z,29.77
2023-04-01T18:08:35.865Z,28.73
2023-04-01T18:11:04.308Z,31.25
2023-04-01T18:13:56.107Z,28.35
2023-04-01T18:16:51.247Z,38.08
2023-04-01T18:19:37.077Z,29.45
2023-04-01T18:22:16.307Z,22.70
2023-04-01T18:24:47.559Z,25.10
2023-04-01T18:27:22.321Z,28.45
2023-04-01T18:30:07.776Z,33.08
2023-04-01T18:32:51.316Z,30.75
2023-04-01T18:35:50.609Z,20.95
2023-04-01T18:38:25.038Z,26.80
2023-04-01T18:41:14.106Z,31.00
2023-04-01T18:43:57.353Z,20.92
2023-04-01T18:46:31.773Z,18.80
2023-04-01T18:49:29.205Z,128.88
2023-04-01T18:52:14.649Z,22.08
2023-04-01T18:55:03.735Z,22.38
2023-04-01T18:57:55.766Z,22.73
2023-04-01T19:00:28.767Z,18.38
2023-04-01T19:03:04.846Z,19.13
2023-04-01T19:05:37.810Z,18.42
2023-04-01T19:08:41.067Z,13.18
2023-04-01T19:11:10.942Z,15.82
2023-04-01T19:13:56.198Z,14.30
2023-04-01T19:16:47.606Z,15.73
2023-04-01T19:19:24.275Z,18.75
2023-04-01T19:22:40.579Z,12.52
2023-04-01T19:25:18.097Z,11.27
2023-04-01T19:27:46.951Z,20.45
2023-04-01T19:30:52.444Z,10.13
2023-04-01T19:33:20.841Z,27.73
2023-04-01T19:35:59.603Z,299.45
2023-04-01T19:38:38.925Z,145.30
2023-04-01T19:41:31.040Z,198.10
2023-04-01T19:44:20.704Z,144.15
2023-04-01T19:47:05.906Z,172.30
2023-04-01T19:49:34.220Z,113.07
2023-04-01T19:52:25.904Z,203.43
2023-04-01T19:55:06.373Z,180.70
2023-04-01T19:57:49.752Z,62.15
2023-04-01T20:00:35.984Z,35.22
2023-04-01T20:03:04.882Z,214.90
2023-04-01T20:06:03.608Z,81.82
2023-04-01T20:08:32.372Z,11.95
2023-04-01T20:11:19.156Z,79.13
2023-04-01T20:13:47.811Z,98.28
2023-04-01T20:16:16.697Z,10.35
2023-04-01T20:18:58.495Z,32.78
2023-04-01T20:21:46.907Z,101.35
2023-04-01T20:24:15.611Z,39.97
2023-04-01T20:26:48.052Z,97.28
2023-04-01T20:29:40.762Z,23.45
2023-04-01T20:32:51.754Z,12.20
2023-04-01T20:35:20.398Z,10.93
2023-04-01T20:38:24.520Z,7.65
2023-04-01T20:41:01.753Z,8.63
2023-04-01T20:43:52.057Z,13.20
2023-04-01T20:46:20.731Z,7.30
2023-04-01T20:49:01.405Z,5.60
2023-04-01T20:51:59.166Z,7.90
2023-04-01T20:54:52.035Z,7.13
2023-04-01T20:57:58.131Z,7.57
2023-04-01T21:00:38.048Z,68.32
2023-04-01T21:03:13.286Z,174.82
2023-04-01T21:06:04.102Z,67.57
2023-04-01T21:09:10.468Z,25.65
2023-04-01T21:12:06.709Z,136.48
2023-04-01T21:14:50.042Z,71.68
2023-04-01T21:17:25.880Z,52.55
2023-04-01T21:20:31.791Z,49.80
2023-04-01T21:23:28.198Z,12.38
2023-04-01T21:26:33.621Z,11.77
2023-04-01T21:29:20.567Z,10.90
2023-04-01T21:32:09.034Z,8.85
2023-04-01T21:34:43.729Z,8.40
2023-04-01T21:37:39.255Z,8.07
2023-04-01T21:40:42.648Z,8.70
2023-04-01T21:43:23.323Z,10.35
2023-04-01T21:46:03.252Z,10.18
2023-04-01T21:48:50.284Z,8.57
2023-04-01T21:51:18.509Z,9.45
2023-04-01T21:53:58.953Z,8.65
2023-04-01T21:56:49.755Z,9.85
2023-04-01T21:59:54.884Z,7.10
2023-04-01T22:02:46.769Z,6.68
2023-04-01T22:05:18.052Z,7.47
2023-04-01T22:07:46.444Z,6.30
2023-04-01T22:10:41.446Z,8.98
2023-04-01T22:13:39.604Z,7.32
2023-04-01T22:16:35.375Z,8.60
2023-04-01T22:19:23.127Z,7.15
2023-04-01T22:22:04.456Z,8.32
2023-04-01T22:24:32.776Z,9.48
2023-04-01T22:27:04.940Z,17.90
2023-04-01T22:30:09.143Z,8.95
2023-04-01T22:32:48.700Z,10.60
2023-04-01T22:35:38.180Z,7.50
2023-04-01T22:38:28.417Z,10.93
2023-04-01T22:41:18.126Z,7.60
2023-04-01T22:43:48.774Z,8.10
2023-04-01T22:46:33.600Z,9.25
2023-04-01T22:49:02.811Z,9.80
2023-04-01T22:51:52.668Z,7.97
2023-04-01T22:54:36.216Z,10.13
2023-04-01T22:57:31.434Z,9.48
2023-04-01T23:00:12.636Z,11.07
2023-04-01T23:03:07.946Z,10.07
2023-04-01T23:05:47.381Z,9.05
2023-04-01T23:08:43.311Z,8.88
2023-04-01T23:11:18.234Z,12.82
2023-04-01T23:13:53.790Z,5.15
2023-04-01T23:16:32.481Z,5.35
2023-04-01T23:19:15.733Z,4.68
2023-04-01T23:22:00.757Z,4.28
2023-04-01T23:24:29.077Z,4.40
2023-04-01T23:27:04.498Z,4.40
2023-04-01T23:29:37.826Z,4.30
2023-04-01T23:32:06.557Z,3.92
2023-04-01T23:34:36.913Z,4.50
2023-04-01T23:37:10.921Z,4.38
2023-04-01T23:39:39.257Z,5.22
2023-04-01T23:42:15.080Z,4.95
2023-04-01T23:44:44.895Z,5.03
2023-04-01T23:47:25.726Z,5.20
2023-04-01T23:50:03.088Z,6.47
2023-04-01T23:52:36.904Z,5.47
2023-04-01T23:55:33.982Z,5.00
2023-04-01T23:58:02.882Z,4.63
